KSUN/SUN METAR and TAF weather

Enter ICAO airport designator
Station Type Date Time Source
KSUN METAR 2021/09/28 14:50 UTC NOAA

KSUN 281450Z 11008KT 10SM SCT050 10/04 A2991


Station Type Date Time Source
KSUN Decoded METAR 2021/09/28 14:50 UTC NOAA

Hailey, Friedman Memorial Airport, ID, United States (KSUN) 43-30N 114-18W
Sep 28, 2021 - 10:50 AM EDT / 2021.09.28 1450 UTC
Wind: from the ESE (110 degrees) at 9 MPH (8 KT):0
Visibility: 10 mile(s):0
Sky conditions: partly cloudy
Temperature: 50 F (10 C)
Dew Point: 39 F (4 C)
Relative Humidity: 66%
Pressure (altimeter): 29.91 in. Hg (1012 hPa)
ob: KSUN 281450Z 11008KT 10SM SCT050 10/04 A2991
cycle: 15

Station Type Date Time Source
KSUN TAF 2021/09/28 12:30 UTC NOAA

TAF KSUN 281129Z 2812/2918 32007KT P6SM BKN120
FM281600 28015G25KT P6SM BKN060 BKN110
FM290300 31010KT P6SM SKC
AMD LTD TO CLD VIS AND WIND TIL 281300

Example: see airport list